createdAt,value
2022-12-25T00:00:54.664Z,100635.00
2022-12-25T00:03:21.182Z,100636.09
2022-12-25T00:05:47.692Z,100618.28
2022-12-25T00:08:14.000Z,100627.16
2022-12-25T00:10:45.295Z,100619.19
2022-12-25T00:13:11.950Z,100609.84
2022-12-25T00:15:40.873Z,100605.47
2022-12-25T00:18:07.264Z,100610.75
2022-12-25T00:20:33.560Z,100607.25
2022-12-25T00:22:59.825Z,100603.75
2022-12-25T00:25:26.137Z,100610.66
2022-12-25T00:27:52.468Z,100613.22
2022-12-25T00:30:18.836Z,100612.97
2022-12-25T00:32:45.223Z,100610.19
2022-12-25T00:35:11.538Z,100608.34
2022-12-25T00:37:37.852Z,100612.75
2022-12-25T00:40:04.535Z,100612.81
2022-12-25T00:42:30.798Z,100616.28
2022-12-25T00:44:57.155Z,100616.13
2022-12-25T00:47:23.538Z,100611.38
2022-12-25T00:49:49.817Z,100608.13
2022-12-25T00:52:16.072Z,100615.94
2022-12-25T00:54:42.363Z,100617.44
2022-12-25T00:57:08.696Z,100604.00
2022-12-25T00:59:35.455Z,100592.19
2022-12-25T01:02:21.900Z,100595.50
2022-12-25T01:04:49.111Z,100598.75
2022-12-25T01:07:16.832Z,100603.84
2022-12-25T01:10:03.189Z,100610.69
2022-12-25T01:12:30.348Z,100614.88
2022-12-25T01:14:56.764Z,100626.13
2022-12-25T01:17:23.316Z,100620.22
2022-12-25T01:19:49.854Z,100626.44
2022-12-25T01:22:16.436Z,100634.38
2022-12-25T01:24:44.114Z,100637.00
2022-12-25T01:27:11.484Z,100618.59
2022-12-25T01:29:38.397Z,100594.81
2022-12-25T01:32:05.305Z,100608.09
2022-12-25T01:34:31.654Z,100615.84
2022-12-25T01:36:58.032Z,100611.47
2022-12-25T01:39:24.482Z,100623.91
2022-12-25T01:41:50.749Z,100620.06
2022-12-25T01:44:19.860Z,100609.66
2022-12-25T01:46:46.222Z,100608.00
2022-12-25T01:49:25.456Z,100605.94
2022-12-25T01:52:00.510Z,100616.59
2022-12-25T01:54:58.162Z,100614.78
2022-12-25T01:57:30.039Z,100600.34
2022-12-25T01:59:58.221Z,100590.66
2022-12-25T02:02:25.320Z,100614.06
2022-12-25T02:05:01.184Z,100618.94
2022-12-25T02:07:29.404Z,100617.25
2022-12-25T02:09:55.760Z,100614.44
2022-12-25T02:12:28.023Z,100596.75
2022-12-25T02:15:04.629Z,100602.03
2022-12-25T02:17:52.910Z,100598.81
2022-12-25T02:20:42.885Z,100590.69
2022-12-25T02:23:30.670Z,100594.34
2022-12-25T02:26:16.463Z,100591.63
2022-12-25T02:29:01.266Z,100591.56
2022-12-25T02:31:53.099Z,100587.06
2022-12-25T02:34:34.969Z,100587.84
2022-12-25T02:37:23.389Z,100586.09
2022-12-25T02:39:59.132Z,100584.19
2022-12-25T02:43:07.321Z,100586.75
2022-12-25T02:46:02.424Z,100586.66
2022-12-25T02:48:51.414Z,100582.34
2022-12-25T02:51:39.581Z,100572.59
2022-12-25T02:54:29.238Z,100575.25
2022-12-25T02:57:17.037Z,100589.41
2022-12-25T03:00:05.450Z,100584.22
2022-12-25T03:02:52.162Z,100588.72
2022-12-25T03:05:44.138Z,100588.72
2022-12-25T03:08:18.996Z,100577.34
2022-12-25T03:11:08.775Z,100580.88
2022-12-25T03:13:38.868Z,100590.50
2022-12-25T03:16:24.529Z,100586.94
2022-12-25T03:18:50.955Z,100588.81
2022-12-25T03:21:36.012Z,100595.81
2022-12-25T03:24:21.242Z,100581.78
2022-12-25T03:26:57.611Z,100586.16
2022-12-25T03:29:45.660Z,100590.34
2022-12-25T03:32:30.441Z,100587.59
2022-12-25T03:35:23.510Z,100583.06
2022-12-25T03:38:43.240Z,100585.81
2022-12-25T03:41:59.244Z,100585.47
2022-12-25T03:44:53.176Z,100570.41
2022-12-25T03:47:59.240Z,100567.72
2022-12-25T03:51:03.505Z,100559.75
2022-12-25T03:54:06.342Z,100553.75
2022-12-25T03:56:52.540Z,100548.50
2022-12-25T03:59:39.382Z,100538.91
2022-12-25T04:02:24.214Z,100555.28
2022-12-25T04:05:09.424Z,100534.56
2022-12-25T04:07:54.142Z,100535.47
2022-12-25T04:10:38.981Z,100551.53
2022-12-25T04:13:23.718Z,100546.78
2022-12-25T04:16:11.000Z,100547.16
2022-12-25T04:18:56.521Z,100536.44
2022-12-25T04:21:41.683Z,100534.63
2022-12-25T04:24:29.049Z,100537.16
2022-12-25T04:27:14.339Z,100533.31
2022-12-25T04:29:59.146Z,100536.13
2022-12-25T04:32:44.036Z,100545.31
2022-12-25T04:35:29.175Z,100552.56
2022-12-25T04:37:56.295Z,100557.81
2022-12-25T04:40:22.674Z,100551.19
2022-12-25T04:42:52.917Z,100537.09
2022-12-25T04:45:19.399Z,100535.28
2022-12-25T04:47:45.784Z,100530.81
2022-12-25T04:50:12.097Z,100533.47
2022-12-25T04:52:40.750Z,100529.66
2022-12-25T04:55:08.564Z,100514.38
2022-12-25T04:57:35.314Z,100526.00
2022-12-25T05:00:01.846Z,100507.31
2022-12-25T05:02:28.339Z,100538.25
2022-12-25T05:04:54.808Z,100548.56
2022-12-25T05:07:21.124Z,100550.16
2022-12-25T05:09:47.471Z,100543.81
2022-12-25T05:12:13.964Z,100543.72
2022-12-25T05:14:41.081Z,100534.91
2022-12-25T05:17:07.946Z,100542.25
2022-12-25T05:19:34.922Z,100555.41
2022-12-25T05:22:01.302Z,100555.28
2022-12-25T05:24:27.878Z,100554.50
2022-12-25T05:26:54.497Z,100536.78
2022-12-25T05:29:20.829Z,100550.00
2022-12-25T05:31:47.145Z,100536.84
2022-12-25T05:34:13.520Z,100520.28
2022-12-25T05:36:39.791Z,100517.69
2022-12-25T05:39:06.092Z,100507.16
2022-12-25T05:41:34.806Z,100530.41
2022-12-25T05:44:01.516Z,100531.19
2022-12-25T05:46:27.857Z,100532.91
2022-12-25T05:48:54.238Z,100506.19
2022-12-25T05:51:20.537Z,100525.81
2022-12-25T05:53:47.012Z,100526.72
2022-12-25T05:56:13.437Z,100522.28
2022-12-25T05:58:40.515Z,100526.78
2022-12-25T06:01:15.502Z,100512.53
2022-12-25T06:03:41.873Z,100521.53
2022-12-25T06:06:09.004Z,100520.53
2022-12-25T06:08:35.533Z,100511.81
2022-12-25T06:11:07.093Z,100506.16
2022-12-25T06:13:34.463Z,100507.84
2022-12-25T06:16:05.660Z,100505.28
2022-12-25T06:18:35.470Z,100487.31
2022-12-25T06:21:06.082Z,100501.63
2022-12-25T06:23:32.512Z,100505.16
2022-12-25T06:25:59.563Z,100490.91
2022-12-25T06:28:25.878Z,100487.28
2022-12-25T06:30:52.187Z,100496.03
2022-12-25T06:33:18.491Z,100476.88
2022-12-25T06:35:44.785Z,100489.09
2022-12-25T06:38:11.120Z,100489.16
2022-12-25T06:40:37.446Z,100493.56
2022-12-25T06:43:03.778Z,100495.22
2022-12-25T06:45:30.100Z,100480.13
2022-12-25T06:47:56.607Z,100483.72
2022-12-25T06:50:22.927Z,100485.53
2022-12-25T06:52:49.299Z,100481.09
2022-12-25T06:55:15.601Z,100495.22
2022-12-25T06:57:41.871Z,100495.16
2022-12-25T07:00:08.941Z,100503.97
2022-12-25T07:02:38.241Z,100497.97
2022-12-25T07:05:05.492Z,100513.00
2022-12-25T07:07:31.769Z,100497.25
2022-12-25T07:09:58.065Z,100503.56
2022-12-25T07:12:24.440Z,100511.53
2022-12-25T07:14:54.060Z,100494.75
2022-12-25T07:17:21.433Z,100480.84
2022-12-25T07:19:48.172Z,100485.69
2022-12-25T07:22:15.893Z,100472.13
2022-12-25T07:24:42.486Z,100485.59
2022-12-25T07:27:09.112Z,100494.13
2022-12-25T07:29:35.406Z,100496.59
2022-12-25T07:32:01.831Z,100490.44
2022-12-25T07:34:28.200Z,100471.06
2022-12-25T07:36:54.853Z,100455.16
2022-12-25T07:39:21.162Z,100478.25
2022-12-25T07:41:47.495Z,100461.28
2022-12-25T07:44:13.864Z,100482.59
2022-12-25T07:46:40.185Z,100472.22
2022-12-25T07:49:06.693Z,100481.78
2022-12-25T07:51:33.149Z,100470.47
2022-12-25T07:53:59.434Z,100485.69
2022-12-25T07:56:25.868Z,100472.25
2022-12-25T07:58:52.282Z,100490.81
2022-12-25T08:01:22.184Z,100498.78
2022-12-25T08:04:08.142Z,100476.03
2022-12-25T08:06:35.262Z,100463.19
2022-12-25T08:09:15.058Z,100443.06
2022-12-25T08:11:46.650Z,100440.47
2022-12-25T08:14:13.366Z,100421.84
2022-12-25T08:16:41.443Z,100422.66
2022-12-25T08:19:09.239Z,100419.19
2022-12-25T08:21:35.640Z,100431.59
2022-12-25T08:24:03.052Z,100448.22
2022-12-25T08:26:29.560Z,100448.88
2022-12-25T08:28:55.889Z,100463.00
2022-12-25T08:31:25.306Z,100469.09
2022-12-25T08:33:53.956Z,100453.16
2022-12-25T08:36:21.000Z,100444.19
2022-12-25T08:38:47.952Z,100432.69
2022-12-25T08:41:17.209Z,100447.97
2022-12-25T08:43:43.910Z,100443.56
2022-12-25T08:46:10.779Z,100433.91
2022-12-25T08:48:37.477Z,100450.78
2022-12-25T08:51:04.731Z,100457.94
2022-12-25T08:53:31.278Z,100452.53
2022-12-25T08:56:03.699Z,100465.97
2022-12-25T08:58:30.145Z,100466.72
2022-12-25T09:00:56.807Z,100456.94
2022-12-25T09:03:23.998Z,100460.47
2022-12-25T09:05:51.438Z,100463.09
2022-12-25T09:08:18.126Z,100445.41
2022-12-25T09:10:44.395Z,100442.22
2022-12-25T09:13:11.128Z,100458.41
2022-12-25T09:15:38.635Z,100464.44
2022-12-25T09:18:05.879Z,100455.84
2022-12-25T09:20:32.797Z,100452.28
2022-12-25T09:22:59.187Z,100452.38
2022-12-25T09:25:25.586Z,100448.06
2022-12-25T09:27:51.905Z,100459.50
2022-12-25T09:30:18.335Z,100450.91
2022-12-25T09:32:44.626Z,100448.25
2022-12-25T09:35:11.060Z,100443.91
2022-12-25T09:37:37.418Z,100441.19
2022-12-25T09:40:04.483Z,100439.47
2022-12-25T09:42:32.286Z,100438.72
2022-12-25T09:45:03.495Z,100434.53
2022-12-25T09:47:33.748Z,100428.28
2022-12-25T09:50:10.080Z,100419.63
2022-12-25T09:52:54.960Z,100423.53
2022-12-25T09:55:26.599Z,100397.28
2022-12-25T09:57:56.667Z,100374.59
2022-12-25T10:00:28.572Z,100369.34
2022-12-25T10:03:16.888Z,100376.53
2022-12-25T10:06:09.133Z,100373.00
2022-12-25T10:08:57.134Z,100394.13
2022-12-25T10:11:42.713Z,100391.63
2022-12-25T10:14:27.237Z,100401.50
2022-12-25T10:17:11.845Z,100408.00
2022-12-25T10:20:00.447Z,100407.38
2022-12-25T10:22:34.568Z,100412.88
2022-12-25T10:25:03.349Z,100408.56
2022-12-25T10:27:40.511Z,100390.13
2022-12-25T10:30:19.224Z,100397.19
2022-12-25T10:32:46.581Z,100402.34
2022-12-25T10:35:15.566Z,100402.13
2022-12-25T10:37:44.144Z,100412.75
2022-12-25T10:40:28.984Z,100398.53
2022-12-25T10:43:04.287Z,100397.72
2022-12-25T10:45:30.601Z,100390.66
2022-12-25T10:48:07.855Z,100367.13
2022-12-25T10:50:34.637Z,100380.69
2022-12-25T10:53:05.083Z,100373.78
2022-12-25T10:55:32.952Z,100377.25
2022-12-25T10:58:01.823Z,100373.72
2022-12-25T11:00:31.434Z,100358.75
2022-12-25T11:02:58.778Z,100368.34
2022-12-25T11:05:31.422Z,100363.09
2022-12-25T11:08:02.816Z,100364.03
2022-12-25T11:10:36.397Z,100361.41
2022-12-25T11:13:07.466Z,100357.75
2022-12-25T11:16:13.119Z,100371.84
2022-12-25T11:18:48.994Z,100364.63
2022-12-25T11:21:23.175Z,100369.16
2022-12-25T11:23:56.576Z,100356.72
2022-12-25T11:26:23.021Z,100354.06
2022-12-25T11:28:51.635Z,100337.22
2022-12-25T11:31:20.734Z,100356.84
2022-12-25T11:33:59.996Z,100345.22
2022-12-25T11:36:51.541Z,100330.09
2022-12-25T11:39:28.002Z,100318.53
2022-12-25T11:42:05.287Z,100314.94
2022-12-25T11:44:38.528Z,100318.44
2022-12-25T11:47:19.114Z,100291.97
2022-12-25T11:50:00.017Z,100276.25
2022-12-25T11:52:33.796Z,100263.88
2022-12-25T11:55:38.254Z,100241.84
2022-12-25T11:58:15.766Z,100244.41
2022-12-25T12:00:46.120Z,100240.91
2022-12-25T12:03:27.868Z,100262.16
2022-12-25T12:05:59.775Z,100264.81
2022-12-25T12:08:26.222Z,100270.06
2022-12-25T12:11:18.647Z,100256.00
2022-12-25T12:13:59.789Z,100246.31
2022-12-25T12:16:26.396Z,100246.34
2022-12-25T12:18:53.370Z,100244.59
2022-12-25T12:21:26.093Z,100240.16
2022-12-25T12:24:03.287Z,100248.97
2022-12-25T12:26:34.589Z,100240.16
2022-12-25T12:29:04.071Z,100238.38
2022-12-25T12:31:46.332Z,100227.84
2022-12-25T12:34:25.061Z,100211.94
2022-12-25T12:37:04.956Z,100228.75
2022-12-25T12:39:36.721Z,100235.88
2022-12-25T12:42:15.769Z,100225.25
2022-12-25T12:44:42.831Z,100228.78
2022-12-25T12:47:29.040Z,100236.72
2022-12-25T12:49:59.791Z,100232.31
2022-12-25T12:52:38.131Z,100221.78
2022-12-25T12:55:06.038Z,100230.69
2022-12-25T12:57:39.435Z,100212.13
2022-12-25T13:00:17.727Z,100221.00
2022-12-25T13:03:20.037Z,100231.69
2022-12-25T13:05:52.713Z,100226.38
2022-12-25T13:08:25.117Z,100224.63
2022-12-25T13:11:04.361Z,100225.47
2022-12-25T13:13:36.744Z,100235.25
2022-12-25T13:16:03.541Z,100225.50
2022-12-25T13:18:30.500Z,100229.94
2022-12-25T13:20:59.981Z,100221.09
2022-12-25T13:23:32.229Z,100220.19
2022-12-25T13:26:01.293Z,100213.91
2022-12-25T13:28:30.006Z,100216.53
2022-12-25T13:31:20.778Z,100205.88
2022-12-25T13:34:15.369Z,100203.19
2022-12-25T13:36:41.686Z,100204.91
2022-12-25T13:39:09.630Z,100193.41
2022-12-25T13:42:04.268Z,100186.28
2022-12-25T13:44:53.329Z,100211.81
2022-12-25T13:47:35.142Z,100209.94
2022-12-25T13:50:15.046Z,100208.09
2022-12-25T13:52:41.656Z,100207.22
2022-12-25T13:55:14.121Z,100203.56
2022-12-25T13:57:51.198Z,100203.44
2022-12-25T14:00:32.631Z,100194.59
2022-12-25T14:02:59.559Z,100205.19
2022-12-25T14:05:25.959Z,100209.59
2022-12-25T14:07:53.772Z,100206.09
2022-12-25T14:10:22.818Z,100208.72
2022-12-25T14:12:51.256Z,100209.53
2022-12-25T14:15:22.841Z,100197.16
2022-12-25T14:17:50.980Z,100201.56
2022-12-25T14:20:29.888Z,100183.91
2022-12-25T14:22:59.242Z,100191.00
2022-12-25T14:25:31.238Z,100204.19
2022-12-25T14:27:57.790Z,100208.53
2022-12-25T14:30:28.967Z,100193.38
2022-12-25T14:32:56.766Z,100213.63
2022-12-25T14:35:24.065Z,100228.63
2022-12-25T14:37:56.354Z,100217.94
2022-12-25T14:40:26.752Z,100207.34
2022-12-25T14:43:05.025Z,100204.59
2022-12-25T14:45:38.427Z,100202.84
2022-12-25T14:48:24.497Z,100211.63
2022-12-25T14:51:09.829Z,100216.06
2022-12-25T14:53:40.793Z,100227.56
2022-12-25T14:56:10.334Z,100210.69
2022-12-25T14:58:43.589Z,100214.22
2022-12-25T15:01:28.673Z,100209.78
2022-12-25T15:04:10.119Z,100205.34
2022-12-25T15:06:39.936Z,100208.84
2022-12-25T15:09:14.874Z,100211.44
2022-12-25T15:11:46.960Z,100209.56
2022-12-25T15:14:13.249Z,100204.16
2022-12-25T15:16:47.011Z,100202.22
2022-12-25T15:19:25.256Z,100202.31
2022-12-25T15:21:52.241Z,100197.72
2022-12-25T15:24:18.564Z,100203.75
2022-12-25T15:26:44.896Z,100208.28
2022-12-25T15:29:11.255Z,100210.81
2022-12-25T15:31:40.885Z,100202.84
2022-12-25T15:34:16.614Z,100195.72
2022-12-25T15:36:42.968Z,100205.38
2022-12-25T15:39:09.360Z,100201.75
2022-12-25T15:41:55.784Z,100210.66
2022-12-25T15:44:22.727Z,100203.75
2022-12-25T15:46:49.197Z,100201.94
2022-12-25T15:49:16.201Z,100206.34
2022-12-25T15:51:43.435Z,100219.66
2022-12-25T15:54:10.535Z,100217.69
2022-12-25T15:56:48.400Z,100219.28
2022-12-25T15:59:17.523Z,100207.81
2022-12-25T16:01:47.423Z,100201.41
2022-12-25T16:04:13.883Z,100190.63
2022-12-25T16:06:40.248Z,100174.59
2022-12-25T16:09:06.823Z,100181.59
2022-12-25T16:11:33.141Z,100188.53
2022-12-25T16:13:59.408Z,100190.19
2022-12-25T16:16:26.062Z,100188.25
2022-12-25T16:18:52.462Z,100190.72
2022-12-25T16:21:20.952Z,100178.22
2022-12-25T16:23:47.492Z,100175.56
2022-12-25T16:26:13.853Z,100170.06
2022-12-25T16:28:40.121Z,100169.16
2022-12-25T16:31:07.267Z,100155.16
2022-12-25T16:33:33.718Z,100156.03
2022-12-25T16:36:00.058Z,100147.91
2022-12-25T16:38:26.393Z,100176.94
2022-12-25T16:40:58.302Z,100186.63
2022-12-25T16:43:25.276Z,100184.88
2022-12-25T16:45:51.939Z,100201.47
2022-12-25T16:48:18.386Z,100206.50
2022-12-25T16:50:44.799Z,100197.06
2022-12-25T16:53:12.414Z,100198.53
2022-12-25T16:55:39.049Z,100210.16
2022-12-25T16:58:06.254Z,100218.47
2022-12-25T17:00:32.670Z,100215.78
2022-12-25T17:03:00.728Z,100216.56
2022-12-25T17:05:27.426Z,100212.97
2022-12-25T17:07:53.739Z,100210.31
2022-12-25T17:10:21.158Z,100218.09
2022-12-25T17:12:47.555Z,100226.94
2022-12-25T17:15:13.965Z,100202.97
2022-12-25T17:17:40.292Z,100203.75
2022-12-25T17:20:07.183Z,100223.34
2022-12-25T17:22:33.578Z,100202.16
2022-12-25T17:24:59.947Z,100216.34
2022-12-25T17:27:26.698Z,100201.28
2022-12-25T17:29:53.096Z,100201.41
2022-12-25T17:32:19.474Z,100196.97
2022-12-25T17:34:45.759Z,100206.72
2022-12-25T17:37:12.045Z,100198.03
2022-12-25T17:39:39.454Z,100190.34
2022-12-25T17:42:06.164Z,100188.50
2022-12-25T17:44:32.447Z,100189.38
2022-12-25T17:46:58.789Z,100193.88
2022-12-25T17:49:25.402Z,100199.53
2022-12-25T17:51:53.441Z,100202.94
2022-12-25T17:54:19.784Z,100190.41
2022-12-25T17:56:46.094Z,100200.97
2022-12-25T17:59:17.940Z,100195.69
2022-12-25T18:01:45.754Z,100205.53
2022-12-25T18:04:12.567Z,100202.09
2022-12-25T18:06:39.127Z,100193.13
2022-12-25T18:09:06.102Z,100198.41
2022-12-25T18:11:33.111Z,100193.06
2022-12-25T18:14:05.084Z,100193.03
2022-12-25T18:16:34.527Z,100181.63
2022-12-25T18:19:01.164Z,100172.84
2022-12-25T18:21:28.229Z,100166.66
2022-12-25T18:23:54.780Z,100160.47
2022-12-25T18:26:21.643Z,100172.72
2022-12-25T18:28:49.513Z,100171.09
2022-12-25T18:31:21.610Z,100195.34
2022-12-25T18:33:48.776Z,100190.88
2022-12-25T18:36:17.497Z,100198.50
2022-12-25T18:38:43.823Z,100199.16
2022-12-25T18:41:10.642Z,100210.53
2022-12-25T18:43:53.089Z,100193.78
2022-12-25T18:46:26.336Z,100171.69
2022-12-25T18:48:57.095Z,100184.00
2022-12-25T18:51:24.024Z,100183.03
2022-12-25T18:53:51.058Z,100182.16
2022-12-25T18:56:18.028Z,100173.41
2022-12-25T18:58:45.177Z,100168.09
2022-12-25T19:01:20.635Z,100169.00
2022-12-25T19:03:51.716Z,100153.97
2022-12-25T19:06:17.988Z,100166.38
2022-12-25T19:08:44.420Z,100165.47
2022-12-25T19:11:10.719Z,100149.47
2022-12-25T19:13:37.061Z,100163.69
2022-12-25T19:16:04.134Z,100158.25
2022-12-25T19:18:31.119Z,100159.94
2022-12-25T19:21:01.686Z,100173.00
2022-12-25T19:23:28.008Z,100166.69
2022-12-25T19:25:54.305Z,100157.66
2022-12-25T19:28:20.779Z,100168.06
2022-12-25T19:30:47.160Z,100153.63
2022-12-25T19:33:17.665Z,100158.78
2022-12-25T19:35:44.541Z,100173.59
2022-12-25T19:38:10.850Z,100173.63
2022-12-25T19:40:38.778Z,100149.78
2022-12-25T19:43:06.030Z,100164.97
2022-12-25T19:45:32.939Z,100171.28
2022-12-25T19:47:59.345Z,100183.91
2022-12-25T19:50:28.405Z,100179.31
2022-12-25T19:52:55.505Z,100168.63
2022-12-25T19:55:22.057Z,100184.31
2022-12-25T19:57:49.530Z,100177.28
2022-12-25T20:00:16.348Z,100169.38
2022-12-25T20:02:42.763Z,100164.06
2022-12-25T20:05:09.249Z,100173.72
2022-12-25T20:07:35.587Z,100168.44
2022-12-25T20:10:01.916Z,100177.16
2022-12-25T20:12:28.202Z,100187.81
2022-12-25T20:14:54.483Z,100166.66
2022-12-25T20:17:20.964Z,100168.31
2022-12-25T20:19:47.244Z,100186.38
2022-12-25T20:22:13.727Z,100180.25
2022-12-25T20:24:41.144Z,100175.03
2022-12-25T20:27:07.484Z,100194.59
2022-12-25T20:29:33.799Z,100173.22
2022-12-25T20:32:00.240Z,100195.25
2022-12-25T20:34:26.655Z,100196.44
2022-12-25T20:36:52.924Z,100182.88
2022-12-25T20:39:19.267Z,100189.84
2022-12-25T20:41:47.424Z,100180.00
2022-12-25T20:44:13.798Z,100175.38
2022-12-25T20:46:40.157Z,100173.47
2022-12-25T20:49:06.644Z,100199.06
2022-12-25T20:51:32.995Z,100204.47
2022-12-25T20:53:59.319Z,100214.94
2022-12-25T20:56:27.042Z,100214.91
2022-12-25T20:58:58.357Z,100212.13
2022-12-25T21:01:25.697Z,100218.19
2022-12-25T21:03:53.127Z,100223.44
2022-12-25T21:06:19.772Z,100211.84
2022-12-25T21:08:46.189Z,100228.53
2022-12-25T21:11:14.094Z,100219.81
2022-12-25T21:13:42.241Z,100221.50
2022-12-25T21:16:12.897Z,100234.59
2022-12-25T21:18:39.424Z,100216.56
2022-12-25T21:21:07.345Z,100230.75
2022-12-25T21:23:35.399Z,100227.84
2022-12-25T21:26:21.221Z,100232.91
2022-12-25T21:28:49.810Z,100239.81
2022-12-25T21:31:16.978Z,100228.88
2022-12-25T21:33:52.663Z,100244.69
2022-12-25T21:36:20.810Z,100253.53
2022-12-25T21:38:47.270Z,100241.06
2022-12-25T21:41:14.747Z,100240.16
2022-12-25T21:43:42.818Z,100242.69
2022-12-25T21:46:12.525Z,100249.66
2022-12-25T21:48:39.796Z,100238.94
2022-12-25T21:51:34.927Z,100236.44
2022-12-25T21:54:01.779Z,100236.31
2022-12-25T21:56:41.324Z,100229.06
2022-12-25T21:59:13.317Z,100242.38
2022-12-25T22:01:39.903Z,100233.53
2022-12-25T22:04:08.363Z,100238.66
2022-12-25T22:06:53.778Z,100229.16
2022-12-25T22:09:21.376Z,100238.00
2022-12-25T22:12:06.660Z,100236.28
2022-12-25T22:14:56.690Z,100221.31
2022-12-25T22:17:44.839Z,100247.00
2022-12-25T22:20:26.236Z,100241.91
2022-12-25T22:22:53.144Z,100244.75
2022-12-25T22:25:20.187Z,100238.06
2022-12-25T22:27:48.482Z,100241.53
2022-12-25T22:30:17.384Z,100254.56
2022-12-25T22:32:44.041Z,100255.22
2022-12-25T22:35:12.017Z,100249.69
2022-12-25T22:37:39.532Z,100257.56
2022-12-25T22:40:07.408Z,100259.31
2022-12-25T22:42:33.935Z,100253.69
2022-12-25T22:45:00.409Z,100260.94
2022-12-25T22:47:26.681Z,100247.56
2022-12-25T22:49:53.014Z,100244.88
2022-12-25T22:52:19.376Z,100231.09
2022-12-25T22:54:45.676Z,100260.53
2022-12-25T22:57:12.002Z,100247.19
2022-12-25T22:59:38.413Z,100262.09
2022-12-25T23:02:04.814Z,100248.88
2022-12-25T23:04:31.284Z,100248.94
2022-12-25T23:06:57.831Z,100260.63
2022-12-25T23:09:27.634Z,100256.94
2022-12-25T23:11:58.482Z,100259.69
2022-12-25T23:14:38.639Z,100279.16
2022-12-25T23:17:06.601Z,100273.22
2022-12-25T23:19:51.943Z,100269.56
2022-12-25T23:22:36.791Z,100257.16
2022-12-25T23:25:22.125Z,100273.03
2022-12-25T23:27:48.510Z,100269.97
2022-12-25T23:30:16.556Z,100265.38
2022-12-25T23:32:44.055Z,100254.13
2022-12-25T23:35:11.534Z,100264.34
2022-12-25T23:37:37.818Z,100266.75
2022-12-25T23:40:04.947Z,100281.38
2022-12-25T23:42:37.181Z,100271.75
2022-12-25T23:45:03.620Z,100271.44
2022-12-25T23:47:29.868Z,100250.19
2022-12-25T23:49:56.154Z,100264.38
2022-12-25T23:52:22.465Z,100256.44
2022-12-25T23:54:48.732Z,100256.59
2022-12-25T23:57:15.034Z,100264.63
2022-12-25T23:59:41.477Z,100264.88
